sensor_id;sensor_type;location;lat;lon;timestamp;pressure;altitude;pressure_sealevel;temperature;humidity
8573;BME280;4324;42.012;24.872;2023-08-31T00:01:03;98095.97;;;25.89;41.24
8573;BME280;4324;42.012;24.872;2023-08-31T00:03:30;98094.41;;;25.83;41.23
8573;BME280;4324;42.012;24.872;2023-08-31T00:05:57;98093.91;;;25.81;41.00
8573;BME280;4324;42.012;24.872;2023-08-31T00:08:24;98104.75;;;25.81;41.29
8573;BME280;4324;42.012;24.872;2023-08-31T00:10:57;98106.91;;;25.79;41.11
8573;BME280;4324;42.012;24.872;2023-08-31T00:13:25;98112.59;;;25.77;41.44
8573;BME280;4324;42.012;24.872;2023-08-31T00:15:55;98104.00;;;25.70;41.16
8573;BME280;4324;42.012;24.872;2023-08-31T00:18:23;98110.84;;;25.63;41.64
8573;BME280;4324;42.012;24.872;2023-08-31T00:20:50;98115.75;;;25.61;41.63
8573;BME280;4324;42.012;24.872;2023-08-31T00:23:17;98116.84;;;25.59;41.64
8573;BME280;4324;42.012;24.872;2023-08-31T00:25:45;98110.94;;;25.52;41.80
8573;BME280;4324;42.012;24.872;2023-08-31T00:28:13;98120.19;;;25.46;41.88
8573;BME280;4324;42.012;24.872;2023-08-31T00:30:41;98127.00;;;25.44;41.84
8573;BME280;4324;42.012;24.872;2023-08-31T00:33:11;98126.78;;;25.40;42.00
8573;BME280;4324;42.012;24.872;2023-08-31T00:35:38;98121.13;;;25.37;41.89
8573;BME280;4324;42.012;24.872;2023-08-31T00:38:08;98124.09;;;25.35;41.66
8573;BME280;4324;42.012;24.872;2023-08-31T00:40:38;98129.03;;;25.28;41.74
8573;BME280;4324;42.012;24.872;2023-08-31T00:43:06;98131.22;;;25.26;42.19
8573;BME280;4324;42.012;24.872;2023-08-31T00:45:34;98143.19;;;25.20;42.25
8573;BME280;4324;42.012;24.872;2023-08-31T00:48:01;98129.69;;;25.15;42.11
8573;BME280;4324;42.012;24.872;2023-08-31T00:50:29;98130.25;;;25.12;41.88
8573;BME280;4324;42.012;24.872;2023-08-31T00:52:56;98132.09;;;25.16;42.13
8573;BME280;4324;42.012;24.872;2023-08-31T00:55:23;98119.91;;;25.14;41.85
8573;BME280;4324;42.012;24.872;2023-08-31T00:57:50;98135.59;;;25.22;41.84
8573;BME280;4324;42.012;24.872;2023-08-31T01:00:18;98137.75;;;25.20;41.74
8573;BME280;4324;42.012;24.872;2023-08-31T01:02:51;98147.47;;;25.26;41.62
8573;BME280;4324;42.012;24.872;2023-08-31T01:05:32;98144.22;;;25.24;41.12
8573;BME280;4324;42.012;24.872;2023-08-31T01:08:07;98139.38;;;25.21;41.61
8573;BME280;4324;42.012;24.872;2023-08-31T01:10:48;98149.69;;;25.19;41.19
8573;BME280;4324;42.012;24.872;2023-08-31T01:13:23;98145.59;;;25.21;41.41
8573;BME280;4324;42.012;24.872;2023-08-31T01:15:53;98151.56;;;25.23;41.10
8573;BME280;4324;42.012;24.872;2023-08-31T01:18:22;98148.56;;;25.25;41.47
8573;BME280;4324;42.012;24.872;2023-08-31T01:21:00;98145.56;;;25.26;41.40
8573;BME280;4324;42.012;24.872;2023-08-31T01:23:32;98147.19;;;25.27;41.45
8573;BME280;4324;42.012;24.872;2023-08-31T01:26:02;98162.88;;;25.30;41.25
8573;BME280;4324;42.012;24.872;2023-08-31T01:28:29;98165.59;;;25.30;41.54
8573;BME280;4324;42.012;24.872;2023-08-31T01:30:57;98168.59;;;25.29;41.45
8573;BME280;4324;42.012;24.872;2023-08-31T01:36:48;98173.53;;;25.22;41.65
8573;BME280;4324;42.012;24.872;2023-08-31T01:39:24;98157.84;;;25.14;41.43
8573;BME280;4324;42.012;24.872;2023-08-31T01:41:58;98176.25;;;25.17;41.45
8573;BME280;4324;42.012;24.872;2023-08-31T01:44:26;98161.38;;;25.14;41.68
8573;BME280;4324;42.012;24.872;2023-08-31T01:46:57;98168.16;;;25.12;41.36
8573;BME280;4324;42.012;24.872;2023-08-31T01:49:25;98180.09;;;25.10;41.47
8573;BME280;4324;42.012;24.872;2023-08-31T01:51:51;98170.84;;;25.06;41.37
8573;BME280;4324;42.012;24.872;2023-08-31T01:54:18;98167.63;;;25.04;40.93
8573;BME280;4324;42.012;24.872;2023-08-31T01:56:45;98173.59;;;25.01;41.41
8573;BME280;4324;42.012;24.872;2023-08-31T01:59:13;98176.31;;;25.01;41.36
8573;BME280;4324;42.012;24.872;2023-08-31T02:01:40;98184.16;;;25.03;40.85
8573;BME280;4324;42.012;24.872;2023-08-31T02:04:07;98172.00;;;25.00;40.73
8573;BME280;4324;42.012;24.872;2023-08-31T02:06:34;98166.63;;;24.90;41.10
8573;BME280;4324;42.012;24.872;2023-08-31T02:09:00;98185.78;;;25.04;40.99
8573;BME280;4324;42.012;24.872;2023-08-31T02:11:27;98190.41;;;25.03;41.06
8573;BME280;4324;42.012;24.872;2023-08-31T02:13:54;98196.34;;;25.05;40.79
8573;BME280;4324;42.012;24.872;2023-08-31T02:16:22;98202.56;;;25.06;40.64
8573;BME280;4324;42.012;24.872;2023-08-31T02:18:49;98196.09;;;25.02;41.00
8573;BME280;4324;42.012;24.872;2023-08-31T02:21:16;98199.59;;;25.02;41.27
8573;BME280;4324;42.012;24.872;2023-08-31T02:23:43;98195.56;;;25.00;41.37
8573;BME280;4324;42.012;24.872;2023-08-31T02:26:11;98199.38;;;24.94;41.08
8573;BME280;4324;42.012;24.872;2023-08-31T02:28:37;98195.41;;;24.81;41.24
8573;BME280;4324;42.012;24.872;2023-08-31T02:31:04;98199.50;;;24.68;41.62
8573;BME280;4324;42.012;24.872;2023-08-31T02:33:32;98204.13;;;24.62;41.70
8573;BME280;4324;42.012;24.872;2023-08-31T02:35:59;98193.59;;;24.51;41.83
8573;BME280;4324;42.012;24.872;2023-08-31T02:38:26;98196.63;;;24.39;41.77
8573;BME280;4324;42.012;24.872;2023-08-31T02:40:53;98201.19;;;24.38;42.14
8573;BME280;4324;42.012;24.872;2023-08-31T02:43:19;98200.13;;;24.34;42.04
8573;BME280;4324;42.012;24.872;2023-08-31T02:45:46;98199.59;;;24.32;41.87
8573;BME280;4324;42.012;24.872;2023-08-31T02:48:13;98204.75;;;24.29;42.17
8573;BME280;4324;42.012;24.872;2023-08-31T02:50:41;98205.03;;;24.22;42.12
8573;BME280;4324;42.012;24.872;2023-08-31T02:53:08;98207.47;;;24.24;42.20
8573;BME280;4324;42.012;24.872;2023-08-31T02:55:35;98220.47;;;24.22;42.37
8573;BME280;4324;42.012;24.872;2023-08-31T02:58:02;98211.00;;;24.19;42.64
8573;BME280;4324;42.012;24.872;2023-08-31T03:00:29;98226.41;;;24.19;42.56
8573;BME280;4324;42.012;24.872;2023-08-31T03:02:56;98233.19;;;24.11;42.82
8573;BME280;4324;42.012;24.872;2023-08-31T03:05:22;98239.69;;;24.05;43.03
8573;BME280;4324;42.012;24.872;2023-08-31T03:07:51;98249.72;;;23.99;43.14
8573;BME280;4324;42.012;24.872;2023-08-31T03:10:18;98251.59;;;23.94;43.40
8573;BME280;4324;42.012;24.872;2023-08-31T03:12:44;98249.41;;;23.90;43.20
8573;BME280;4324;42.012;24.872;2023-08-31T03:15:28;98236.16;;;23.84;43.31
8573;BME280;4324;42.012;24.872;2023-08-31T03:17:54;98245.09;;;23.89;43.53
8573;BME280;4324;42.012;24.872;2023-08-31T03:20:21;98254.03;;;23.85;43.65
8573;BME280;4324;42.012;24.872;2023-08-31T03:22:48;98245.38;;;23.78;43.53
8573;BME280;4324;42.012;24.872;2023-08-31T03:25:16;98253.75;;;23.76;43.81
8573;BME280;4324;42.012;24.872;2023-08-31T03:27:43;98247.00;;;23.69;43.95
8573;BME280;4324;42.012;24.872;2023-08-31T03:30:10;98243.47;;;23.63;43.96
8573;BME280;4324;42.012;24.872;2023-08-31T03:32:37;98242.38;;;23.64;43.89
8573;BME280;4324;42.012;24.872;2023-08-31T03:35:05;98244.78;;;23.60;43.89
8573;BME280;4324;42.012;24.872;2023-08-31T03:37:32;98249.66;;;23.58;44.20
8573;BME280;4324;42.012;24.872;2023-08-31T03:39:59;98241.00;;;23.56;44.03
8573;BME280;4324;42.012;24.872;2023-08-31T03:42:27;98243.44;;;23.58;43.84
8573;BME280;4324;42.012;24.872;2023-08-31T03:44:54;98243.19;;;23.59;44.14
8573;BME280;4324;42.012;24.872;2023-08-31T03:47:21;98249.41;;;23.60;44.15
8573;BME280;4324;42.012;24.872;2023-08-31T03:49:48;98254.25;;;23.58;44.17
8573;BME280;4324;42.012;24.872;2023-08-31T03:52:15;98258.84;;;23.57;44.07
8573;BME280;4324;42.012;24.872;2023-08-31T03:54:41;98259.91;;;23.61;44.15
8573;BME280;4324;42.012;24.872;2023-08-31T03:57:08;98260.47;;;23.63;43.96
8573;BME280;4324;42.012;24.872;2023-08-31T03:59:36;98270.78;;;23.72;43.76
8573;BME280;4324;42.012;24.872;2023-08-31T04:02:03;98267.53;;;23.75;43.96
8573;BME280;4324;42.012;24.872;2023-08-31T04:04:31;98270.25;;;23.75;43.93
8573;BME280;4324;42.012;24.872;2023-08-31T04:06:59;98275.38;;;23.71;43.81
8573;BME280;4324;42.012;24.872;2023-08-31T04:09:26;98271.81;;;23.65;44.04
8573;BME280;4324;42.012;24.872;2023-08-31T04:11:53;98271.00;;;23.65;43.75
8573;BME280;4324;42.012;24.872;2023-08-31T04:14:20;98281.06;;;23.75;44.11
8573;BME280;4324;42.012;24.872;2023-08-31T04:16:48;98255.06;;;23.58;43.86
8573;BME280;4324;42.012;24.872;2023-08-31T04:19:15;98291.59;;;23.76;43.70
8573;BME280;4324;42.012;24.872;2023-08-31T04:21:42;98294.28;;;23.76;43.66
8573;BME280;4324;42.012;24.872;2023-08-31T04:24:09;98304.03;;;23.72;44.16
8573;BME280;4324;42.012;24.872;2023-08-31T04:26:36;98309.16;;;23.69;44.29
8573;BME280;4324;42.012;24.872;2023-08-31T04:29:03;98306.41;;;23.63;44.39
8573;BME280;4324;42.012;24.872;2023-08-31T04:31:31;98313.75;;;23.68;44.39
8573;BME280;4324;42.012;24.872;2023-08-31T04:33:59;98314.25;;;23.65;44.12
8573;BME280;4324;42.012;24.872;2023-08-31T04:36:26;98322.13;;;23.66;44.16
8573;BME280;4324;42.012;24.872;2023-08-31T04:38:52;98292.63;;;23.60;44.36
8573;BME280;4324;42.012;24.872;2023-08-31T04:41:19;98318.34;;;23.67;44.51
8573;BME280;4324;42.012;24.872;2023-08-31T04:43:46;98323.75;;;23.67;44.47
8573;BME280;4324;42.012;24.872;2023-08-31T04:46:14;98322.41;;;23.70;44.63
8573;BME280;4324;42.012;24.872;2023-08-31T04:48:40;98315.38;;;23.69;44.40
8573;BME280;4324;42.012;24.872;2023-08-31T04:51:09;98325.94;;;23.81;44.40
8573;BME280;4324;42.012;24.872;2023-08-31T04:53:53;98327.03;;;23.90;43.91
8573;BME280;4324;42.012;24.872;2023-08-31T04:56:19;98333.25;;;24.01;43.92
8573;BME280;4324;42.012;24.872;2023-08-31T04:58:46;98323.25;;;24.01;44.01
8573;BME280;4324;42.012;24.872;2023-08-31T05:01:13;98331.38;;;24.11;43.59
8573;BME280;4324;42.012;24.872;2023-08-31T05:03:41;98335.69;;;24.28;43.78
8573;BME280;4324;42.012;24.872;2023-08-31T05:06:09;98328.91;;;24.35;43.47
8573;BME280;4324;42.012;24.872;2023-08-31T05:08:36;98338.94;;;24.45;43.23
8573;BME280;4324;42.012;24.872;2023-08-31T05:11:04;98336.78;;;24.52;43.17
8573;BME280;4324;42.012;24.872;2023-08-31T05:13:31;98342.44;;;24.61;43.08
8573;BME280;4324;42.012;24.872;2023-08-31T05:15:58;98344.31;;;24.66;42.97
8573;BME280;4324;42.012;24.872;2023-08-31T05:18:24;98342.72;;;24.70;42.76
8573;BME280;4324;42.012;24.872;2023-08-31T05:20:51;98341.88;;;24.74;42.86
8573;BME280;4324;42.012;24.872;2023-08-31T05:23:19;98342.94;;;24.78;42.44
8573;BME280;4324;42.012;24.872;2023-08-31T05:25:46;98343.75;;;24.89;42.78
8573;BME280;4324;42.012;24.872;2023-08-31T05:28:13;98346.69;;;24.98;42.62
8573;BME280;4324;42.012;24.872;2023-08-31T05:30:47;98351.81;;;25.04;42.48
8573;BME280;4324;42.012;24.872;2023-08-31T05:33:15;98331.75;;;25.05;42.49
8573;BME280;4324;42.012;24.872;2023-08-31T05:35:42;98349.63;;;25.22;42.10
8573;BME280;4324;42.012;24.872;2023-08-31T05:38:09;98348.78;;;25.26;41.96
8573;BME280;4324;42.012;24.872;2023-08-31T05:40:37;98354.47;;;25.30;41.90
8573;BME280;4324;42.012;24.872;2023-08-31T05:43:04;98349.00;;;25.35;41.93
8573;BME280;4324;42.012;24.872;2023-08-31T05:45:32;98358.19;;;25.44;41.69
8573;BME280;4324;42.012;24.872;2023-08-31T05:47:59;98353.75;;;25.58;41.41
8573;BME280;4324;42.012;24.872;2023-08-31T05:50:26;98351.53;;;25.66;41.00
8573;BME280;4324;42.012;24.872;2023-08-31T05:52:53;98353.69;;;25.69;41.03
8573;BME280;4324;42.012;24.872;2023-08-31T05:55:20;98354.19;;;25.76;41.08
8573;BME280;4324;42.012;24.872;2023-08-31T05:57:49;98357.41;;;25.88;40.74
8573;BME280;4324;42.012;24.872;2023-08-31T06:00:17;98351.41;;;25.96;40.77
8573;BME280;4324;42.012;24.872;2023-08-31T06:02:44;98356.72;;;26.12;40.92
8573;BME280;4324;42.012;24.872;2023-08-31T06:05:11;98358.19;;;26.28;40.87
8573;BME280;4324;42.012;24.872;2023-08-31T06:07:42;98356.97;;;26.49;40.64
8573;BME280;4324;42.012;24.872;2023-08-31T06:10:09;98358.66;;;26.69;40.23
8573;BME280;4324;42.012;24.872;2023-08-31T06:12:36;98366.06;;;26.88;40.19
8573;BME280;4324;42.012;24.872;2023-08-31T06:15:05;98368.91;;;27.01;39.96
8573;BME280;4324;42.012;24.872;2023-08-31T06:17:32;98367.25;;;27.06;39.79
8573;BME280;4324;42.012;24.872;2023-08-31T06:20:00;98364.75;;;27.09;39.45
8573;BME280;4324;42.012;24.872;2023-08-31T06:22:27;98346.81;;;27.13;39.32
8573;BME280;4324;42.012;24.872;2023-08-31T06:24:54;98366.41;;;27.34;39.13
8573;BME280;4324;42.012;24.872;2023-08-31T06:27:21;98370.03;;;27.48;39.01
8573;BME280;4324;42.012;24.872;2023-08-31T06:29:47;98364.50;;;27.54;38.59
8573;BME280;4324;42.012;24.872;2023-08-31T06:32:16;98373.13;;;27.61;38.47
8573;BME280;4324;42.012;24.872;2023-08-31T06:34:42;98375.16;;;27.69;38.29
8573;BME280;4324;42.012;24.872;2023-08-31T06:37:09;98372.41;;;27.74;38.13
8573;BME280;4324;42.012;24.872;2023-08-31T06:39:36;98373.50;;;27.92;38.04
8573;BME280;4324;42.012;24.872;2023-08-31T06:42:03;98376.25;;;28.11;37.79
8573;BME280;4324;42.012;24.872;2023-08-31T06:46:58;98357.88;;;28.35;37.22
8573;BME280;4324;42.012;24.872;2023-08-31T06:49:27;98372.78;;;28.57;37.06
8573;BME280;4324;42.012;24.872;2023-08-31T06:51:55;98363.31;;;28.68;36.83
8573;BME280;4324;42.012;24.872;2023-08-31T06:54:22;98379.91;;;28.85;36.88
8573;BME280;4324;42.012;24.872;2023-08-31T06:56:49;98368.69;;;28.87;36.48
8573;BME280;4324;42.012;24.872;2023-08-31T06:59:16;98383.13;;;28.87;36.37
8573;BME280;4324;42.012;24.872;2023-08-31T07:01:43;98382.00;;;28.88;36.35
8573;BME280;4324;42.012;24.872;2023-08-31T07:04:10;98386.25;;;28.94;36.41
8573;BME280;4324;42.012;24.872;2023-08-31T07:06:38;98368.22;;;28.99;36.58
8573;BME280;4324;42.012;24.872;2023-08-31T07:09:05;98370.84;;;29.17;36.52
8573;BME280;4324;42.012;24.872;2023-08-31T07:11:33;98379.75;;;29.23;36.14
8573;BME280;4324;42.012;24.872;2023-08-31T07:14:00;98381.16;;;29.21;36.24
8573;BME280;4324;42.012;24.872;2023-08-31T07:16:27;98344.56;;;28.94;36.10
8573;BME280;4324;42.012;24.872;2023-08-31T07:18:54;98369.03;;;29.13;36.09
8573;BME280;4324;42.012;24.872;2023-08-31T07:21:21;98371.28;;;29.11;36.10
8573;BME280;4324;42.012;24.872;2023-08-31T07:23:49;98363.91;;;29.11;36.05
8573;BME280;4324;42.012;24.872;2023-08-31T07:26:16;98378.31;;;29.26;36.03
8573;BME280;4324;42.012;24.872;2023-08-31T07:28:43;98390.13;;;29.35;35.82
8573;BME280;4324;42.012;24.872;2023-08-31T07:31:10;98371.25;;;29.38;35.58
8573;BME280;4324;42.012;24.872;2023-08-31T07:33:37;98383.16;;;29.42;35.84
8573;BME280;4324;42.012;24.872;2023-08-31T07:36:04;98375.09;;;29.37;35.69
8573;BME280;4324;42.012;24.872;2023-08-31T07:38:32;98386.28;;;29.36;35.38
8573;BME280;4324;42.012;24.872;2023-08-31T07:41:00;98387.59;;;29.38;35.51
8573;BME280;4324;42.012;24.872;2023-08-31T07:43:29;98374.84;;;29.48;35.76
8573;BME280;4324;42.012;24.872;2023-08-31T07:45:56;98380.22;;;29.53;35.44
8573;BME280;4324;42.012;24.872;2023-08-31T07:48:23;98377.69;;;29.56;35.31
8573;BME280;4324;42.012;24.872;2023-08-31T07:50:50;98368.19;;;29.54;35.66
8573;BME280;4324;42.012;24.872;2023-08-31T07:53:17;98370.53;;;29.60;35.35
8573;BME280;4324;42.012;24.872;2023-08-31T07:55:51;98364.28;;;29.60;35.22
8573;BME280;4324;42.012;24.872;2023-08-31T07:58:21;98369.22;;;29.58;35.23
8573;BME280;4324;42.012;24.872;2023-08-31T08:00:48;98382.13;;;29.66;35.04
8573;BME280;4324;42.012;24.872;2023-08-31T08:03:15;98376.88;;;29.70;35.07
8573;BME280;4324;42.012;24.872;2023-08-31T08:05:42;98374.47;;;29.68;34.88
8573;BME280;4324;42.012;24.872;2023-08-31T08:08:09;98382.78;;;29.63;34.60
8573;BME280;4324;42.012;24.872;2023-08-31T08:10:36;98372.84;;;29.67;34.94
8573;BME280;4324;42.012;24.872;2023-08-31T08:13:04;98370.19;;;29.76;34.82
8573;BME280;4324;42.012;24.872;2023-08-31T08:15:32;98374.84;;;29.75;34.36
8573;BME280;4324;42.012;24.872;2023-08-31T08:17:59;98383.84;;;29.76;34.77
8573;BME280;4324;42.012;24.872;2023-08-31T08:20:27;98384.53;;;29.81;34.99
8573;BME280;4324;42.012;24.872;2023-08-31T08:22:54;98386.34;;;29.86;34.30
8573;BME280;4324;42.012;24.872;2023-08-31T08:25:21;98379.56;;;29.83;34.22
8573;BME280;4324;42.012;24.872;2023-08-31T08:27:50;98368.84;;;29.87;34.39
8573;BME280;4324;42.012;24.872;2023-08-31T08:32:53;98339.81;;;29.91;34.09
8573;BME280;4324;42.012;24.872;2023-08-31T08:35:20;98372.72;;;30.22;33.73
8573;BME280;4324;42.012;24.872;2023-08-31T08:37:47;98377.28;;;30.35;33.87
8573;BME280;4324;42.012;24.872;2023-08-31T08:40:14;98367.97;;;30.36;33.36
8573;BME280;4324;42.012;24.872;2023-08-31T08:42:42;98367.34;;;30.40;32.90
8573;BME280;4324;42.012;24.872;2023-08-31T08:45:15;98376.34;;;30.40;32.77
8573;BME280;4324;42.012;24.872;2023-08-31T08:47:42;98373.34;;;30.50;32.76
8573;BME280;4324;42.012;24.872;2023-08-31T08:50:12;98368.59;;;30.56;32.42
8573;BME280;4324;42.012;24.872;2023-08-31T08:52:39;98361.72;;;30.67;32.11
8573;BME280;4324;42.012;24.872;2023-08-31T08:55:08;98368.56;;;30.78;31.70
8573;BME280;4324;42.012;24.872;2023-08-31T08:57:35;98369.56;;;30.82;31.62
8573;BME280;4324;42.012;24.872;2023-08-31T09:00:03;98350.09;;;30.84;31.91
8573;BME280;4324;42.012;24.872;2023-08-31T09:02:30;98354.47;;;30.94;31.64
8573;BME280;4324;42.012;24.872;2023-08-31T09:04:57;98359.31;;;30.97;31.56
8573;BME280;4324;42.012;24.872;2023-08-31T09:07:29;98350.63;;;30.95;31.63
8573;BME280;4324;42.012;24.872;2023-08-31T09:09:56;98340.56;;;31.13;31.52
8573;BME280;4324;42.012;24.872;2023-08-31T09:12:24;98342.88;;;31.37;31.38
8573;BME280;4324;42.012;24.872;2023-08-31T09:14:58;98353.88;;;31.54;31.47
8573;BME280;4324;42.012;24.872;2023-08-31T09:17:26;98350.50;;;31.57;31.02
8573;BME280;4324;42.012;24.872;2023-08-31T09:19:59;98362.56;;;31.65;30.78
8573;BME280;4324;42.012;24.872;2023-08-31T09:22:30;98360.81;;;31.60;30.87
8573;BME280;4324;42.012;24.872;2023-08-31T09:24:57;98359.34;;;31.63;30.87
8573;BME280;4324;42.012;24.872;2023-08-31T09:27:24;98353.88;;;31.63;30.57
8573;BME280;4324;42.012;24.872;2023-08-31T09:29:54;98359.03;;;31.73;30.63
8573;BME280;4324;42.012;24.872;2023-08-31T09:32:21;98363.59;;;31.86;30.12
8573;BME280;4324;42.012;24.872;2023-08-31T09:34:48;98349.22;;;31.80;29.92
8573;BME280;4324;42.012;24.872;2023-08-31T09:37:16;98344.59;;;31.90;30.39
8573;BME280;4324;42.012;24.872;2023-08-31T09:39:44;98341.66;;;32.03;30.04
8573;BME280;4324;42.012;24.872;2023-08-31T09:42:11;98358.41;;;32.11;30.26
8573;BME280;4324;42.012;24.872;2023-08-31T09:44:40;98351.34;;;32.10;30.06
8573;BME280;4324;42.012;24.872;2023-08-31T09:47:08;98349.72;;;32.00;29.35
8573;BME280;4324;42.012;24.872;2023-08-31T09:49:36;98350.38;;;31.88;30.06
8573;BME280;4324;42.012;24.872;2023-08-31T09:52:05;98351.94;;;31.80;30.09
8573;BME280;4324;42.012;24.872;2023-08-31T09:54:34;98338.91;;;31.60;30.16
8573;BME280;4324;42.012;24.872;2023-08-31T09:57:03;98313.91;;;31.36;30.25
8573;BME280;4324;42.012;24.872;2023-08-31T09:59:31;98363.84;;;31.50;30.14
8573;BME280;4324;42.012;24.872;2023-08-31T10:01:59;98363.16;;;31.44;30.27
8573;BME280;4324;42.012;24.872;2023-08-31T10:04:29;98351.91;;;31.37;30.49
8573;BME280;4324;42.012;24.872;2023-08-31T10:06:57;98355.59;;;31.32;30.71
8573;BME280;4324;42.012;24.872;2023-08-31T10:09:25;98353.81;;;31.37;30.69
8573;BME280;4324;42.012;24.872;2023-08-31T10:11:53;98367.06;;;31.61;30.52
8573;BME280;4324;42.012;24.872;2023-08-31T10:14:22;98347.16;;;31.86;29.96
8573;BME280;4324;42.012;24.872;2023-08-31T10:16:50;98348.63;;;32.01;30.17
8573;BME280;4324;42.012;24.872;2023-08-31T10:19:18;98347.63;;;32.14;29.66
8573;BME280;4324;42.012;24.872;2023-08-31T10:21:45;98345.84;;;32.27;29.31
8573;BME280;4324;42.012;24.872;2023-08-31T10:24:12;98334.53;;;32.37;29.64
8573;BME280;4324;42.012;24.872;2023-08-31T10:26:39;98350.97;;;32.63;29.62
8573;BME280;4324;42.012;24.872;2023-08-31T10:29:26;98344.63;;;32.71;29.24
8573;BME280;4324;42.012;24.872;2023-08-31T10:31:54;98346.56;;;32.71;29.14
8573;BME280;4324;42.012;24.872;2023-08-31T10:34:34;98339.94;;;32.72;29.33
8573;BME280;4324;42.012;24.872;2023-08-31T10:37:19;98352.50;;;32.73;29.38
8573;BME280;4324;42.012;24.872;2023-08-31T10:39:46;98352.88;;;32.63;29.37
8573;BME280;4324;42.012;24.872;2023-08-31T10:42:14;98315.72;;;32.18;29.49
8573;BME280;4324;42.012;24.872;2023-08-31T10:44:42;98352.13;;;32.27;29.50
8573;BME280;4324;42.012;24.872;2023-08-31T10:47:10;98342.97;;;32.06;29.84
8573;BME280;4324;42.012;24.872;2023-08-31T10:49:38;98350.53;;;31.92;29.69
8573;BME280;4324;42.012;24.872;2023-08-31T10:52:18;98352.13;;;31.84;29.89
8573;BME280;4324;42.012;24.872;2023-08-31T10:54:46;98341.81;;;31.72;29.89
8573;BME280;4324;42.012;24.872;2023-08-31T10:57:13;98358.56;;;31.79;30.23
8573;BME280;4324;42.012;24.872;2023-08-31T10:59:47;98359.19;;;31.76;30.38
8573;BME280;4324;42.012;24.872;2023-08-31T11:02:28;98361.94;;;31.68;30.51
8573;BME280;4324;42.012;24.872;2023-08-31T11:04:59;98345.81;;;31.57;30.29
8573;BME280;4324;42.012;24.872;2023-08-31T11:07:27;98363.84;;;31.58;30.34
8573;BME280;4324;42.012;24.872;2023-08-31T11:10:07;98364.81;;;31.54;30.51
8573;BME280;4324;42.012;24.872;2023-08-31T11:12:34;98363.34;;;31.48;30.88
8573;BME280;4324;42.012;24.872;2023-08-31T11:15:03;98366.69;;;31.36;31.04
8573;BME280;4324;42.012;24.872;2023-08-31T11:17:30;98371.31;;;31.27;31.53
8573;BME280;4324;42.012;24.872;2023-08-31T11:19:58;98373.19;;;31.09;31.61
8573;BME280;4324;42.012;24.872;2023-08-31T11:22:25;98381.13;;;30.88;32.02
8573;BME280;4324;42.012;24.872;2023-08-31T11:24:52;98377.25;;;30.58;32.08
8573;BME280;4324;42.012;24.872;2023-08-31T11:27:19;98385.09;;;30.28;33.28
8573;BME280;4324;42.012;24.872;2023-08-31T11:29:47;98360.81;;;30.04;34.29
8573;BME280;4324;42.012;24.872;2023-08-31T11:32:15;98378.47;;;30.07;35.29
8573;BME280;4324;42.012;24.872;2023-08-31T11:34:44;98376.19;;;30.00;36.08
8573;BME280;4324;42.012;24.872;2023-08-31T11:37:13;98360.91;;;29.99;37.12
8573;BME280;4324;42.012;24.872;2023-08-31T11:39:42;98367.06;;;30.19;37.40
8573;BME280;4324;42.012;24.872;2023-08-31T11:42:09;98364.13;;;30.37;38.26
8573;BME280;4324;42.012;24.872;2023-08-31T11:44:36;98364.47;;;30.67;39.39
8573;BME280;4324;42.012;24.872;2023-08-31T11:47:03;98370.66;;;30.81;40.10
8573;BME280;4324;42.012;24.872;2023-08-31T11:49:32;98377.41;;;30.84;40.53
8573;BME280;4324;42.012;24.872;2023-08-31T11:51:59;98351.78;;;30.71;41.03
8573;BME280;4324;42.012;24.872;2023-08-31T11:54:31;98367.66;;;30.92;41.54
8573;BME280;4324;42.012;24.872;2023-08-31T11:57:08;98364.66;;;31.10;41.69
8573;BME280;4324;42.012;24.872;2023-08-31T11:59:36;98361.34;;;31.22;41.37
8573;BME280;4324;42.012;24.872;2023-08-31T12:02:05;98349.00;;;31.33;41.63
8573;BME280;4324;42.012;24.872;2023-08-31T12:04:42;98324.81;;;31.27;41.37
8573;BME280;4324;42.012;24.872;2023-08-31T12:07:09;98346.63;;;31.49;41.73
8573;BME280;4324;42.012;24.872;2023-08-31T12:09:36;98349.84;;;31.60;42.28
8573;BME280;4324;42.012;24.872;2023-08-31T12:12:03;98349.22;;;31.63;42.43
8573;BME280;4324;42.012;24.872;2023-08-31T12:14:31;98358.06;;;31.69;42.38
8573;BME280;4324;42.012;24.872;2023-08-31T12:17:02;98343.88;;;31.67;42.64
8573;BME280;4324;42.012;24.872;2023-08-31T12:19:31;98346.78;;;31.70;42.75
8573;BME280;4324;42.012;24.872;2023-08-31T12:22:01;98340.84;;;31.68;42.71
8573;BME280;4324;42.012;24.872;2023-08-31T12:24:29;98345.34;;;31.81;42.38
8573;BME280;4324;42.012;24.872;2023-08-31T12:27:03;98341.69;;;31.86;42.11
8573;BME280;4324;42.012;24.872;2023-08-31T12:29:31;98326.19;;;31.81;41.59
8573;BME280;4324;42.012;24.872;2023-08-31T12:31:58;98335.25;;;31.91;41.67
8573;BME280;4324;42.012;24.872;2023-08-31T12:34:25;98338.13;;;32.03;41.32
8573;BME280;4324;42.012;24.872;2023-08-31T12:36:52;98336.19;;;32.12;40.94
8573;BME280;4324;42.012;24.872;2023-08-31T12:39:20;98335.19;;;32.25;40.65
8573;BME280;4324;42.012;24.872;2023-08-31T12:41:47;98323.91;;;32.36;40.03
8573;BME280;4324;42.012;24.872;2023-08-31T12:44:15;98327.13;;;32.46;39.85
8573;BME280;4324;42.012;24.872;2023-08-31T12:46:42;98334.16;;;32.65;39.56
8573;BME280;4324;42.012;24.872;2023-08-31T12:49:09;98334.13;;;32.73;39.46
8573;BME280;4324;42.012;24.872;2023-08-31T12:51:36;98326.84;;;32.77;38.98
8573;BME280;4324;42.012;24.872;2023-08-31T12:54:03;98313.81;;;32.74;38.79
8573;BME280;4324;42.012;24.872;2023-08-31T12:56:31;98307.84;;;32.72;38.65
8573;BME280;4324;42.012;24.872;2023-08-31T12:58:58;98313.81;;;32.74;38.78
8573;BME280;4324;42.012;24.872;2023-08-31T13:01:28;98310.78;;;32.67;38.40
8573;BME280;4324;42.012;24.872;2023-08-31T13:04:02;98239.84;;;32.19;38.40
8573;BME280;4324;42.012;24.872;2023-08-31T13:06:30;98289.56;;;32.47;38.58
8573;BME280;4324;42.012;24.872;2023-08-31T13:08:58;98248.06;;;32.10;38.53
8573;BME280;4324;42.012;24.872;2023-08-31T13:11:27;98318.22;;;32.58;38.40
8573;BME280;4324;42.012;24.872;2023-08-31T13:13:56;98247.41;;;32.13;38.22
8573;BME280;4324;42.012;24.872;2023-08-31T13:16:23;98251.13;;;32.17;38.57
8573;BME280;4324;42.012;24.872;2023-08-31T13:18:50;98240.50;;;32.16;38.15
8573;BME280;4324;42.012;24.872;2023-08-31T13:21:17;98290.53;;;32.51;38.01
8573;BME280;4324;42.012;24.872;2023-08-31T13:23:47;98241.59;;;32.23;38.01